Time;durP1;ratioP1;P1;durP2;ratioP2;P2;SDS_P1;SDS_P2;PMS_P1;PMS_P2;Temp;Humidity;BMP_temperature;BMP_pressure;BME280_temperature;BME280_humidity;BME280_pressure;Samples;Min_cycle;Max_cycle;Signal;HPM_P1;HPM_P2
2024/01/18 00:02:00;;;;;;;;;;;;;;;;;;5019714;28;59273;-76
2024/01/18 00:04:25;;;;;;;;;;;;;;;;;;5021375;28;60895;-75
2024/01/18 00:06:50;;;;;;;;;;;;;;;;;;5021430;27;59523;-75
2024/01/18 00:09:15;;;;;;;;;;;;;;;;;;5018880;27;59218;-75
2024/01/18 00:11:40;;;;;;;;;;;;;;;;;;5022091;28;59650;-75
2024/01/18 00:14:05;;;;;;;;;;;;;;;;;;5019971;28;59738;-75
2024/01/18 00:16:32;;;;;;;;;;;;;;;;;;5023199;28;59507;-75
2024/01/18 00:18:58;;;;;;;;;;;;;;;;;;5022966;28;60084;-75
2024/01/18 00:21:23;;;;;;;;;;;;;;;;;;5020496;28;59704;-75
2024/01/18 00:23:48;;;;;;;;;;;;;;;;;;5022586;28;59624;-75
2024/01/18 00:26:13;;;;;;;;;;;;;;;;;;5020626;28;59063;-76
2024/01/18 00:28:38;;;;;;;;;;;;;;;;;;5023005;28;58774;-75
2024/01/18 00:31:03;;;;;;;;;;;;;;;;;;5020897;28;61337;-76
2024/01/18 00:33:28;;;;;;;;;;;;;;;;;;5021931;28;59545;-76
2024/01/18 00:35:53;;;;;;;;;;;;;;;;;;5024359;28;59091;-76
2024/01/18 00:38:18;;;;;;;;;;;;;;;;;;5020510;28;60439;-76
2024/01/18 00:40:44;;;;;;;;;;;;;;;;;;5022457;28;59588;-77
2024/01/18 00:43:09;;;;;;;;;;;;;;;;;;5022414;28;60077;-75
2024/01/18 00:45:34;;;;;;;;;;;;;;;;;;5020235;28;60736;-76
2024/01/18 00:47:59;;;;;;;;;;;;;;;;;;5020241;28;59591;-76
2024/01/18 00:50:24;;;;;;;;;;;;;;;;;;5020457;28;60848;-77
2024/01/18 00:52:49;;;;;;;;;;;;;;;;;;5021398;28;59546;-77
2024/01/18 00:55:14;;;;;;;;;;;;;;;;;;5021545;28;59146;-76
2024/01/18 00:57:39;;;;;;;;;;;;;;;;;;5020691;28;60445;-76
2024/01/18 01:00:05;;;;;;;;;;;;;;;;;;5019731;28;60782;-76
2024/01/18 01:02:30;;;;;;;;;;;;;;;;;;5020151;28;59498;-76
2024/01/18 01:04:55;;;;;;;;;;;;;;;;;;5021520;28;60268;-75
2024/01/18 01:07:20;;;;;;;;;;;;;;;;;;5022547;28;59708;-76
2024/01/18 01:09:45;;;;;;;;;;;;;;;;;;5022645;28;60328;-75
2024/01/18 01:12:10;;;;;;;;;;;;;;;;;;5020420;28;59250;-75
2024/01/18 01:14:35;;;;;;;;;;;;;;;;;;5021811;28;58413;-75
2024/01/18 01:17:00;;;;;;;;;;;;;;;;;;5020618;28;60216;-75
2024/01/18 01:19:25;;;;;;;;;;;;;;;;;;5022154;28;59846;-75
2024/01/18 01:21:51;;;;;;;;;;;;;;;;;;5023870;28;59229;-75
2024/01/18 01:24:16;;;;;;;;;;;;;;;;;;5025279;28;59364;-75
2024/01/18 01:26:41;;;;;;;;;;;;;;;;;;5023968;28;59461;-75
2024/01/18 01:29:08;;;;;;;;;;;;;;;;;;5024975;28;59899;-75
2024/01/18 01:31:33;;;;;;;;;;;;;;;;;;5025350;28;59866;-76
2024/01/18 01:33:58;;;;;;;;;;;;;;;;;;5023000;28;59143;-75
2024/01/18 01:36:23;;;;;;;;;;;;;;;;;;5025080;28;60261;-76
2024/01/18 01:38:48;;;;;;;;;;;;;;;;;;5024195;28;59554;-75
2024/01/18 01:41:13;;;;;;;;;;;;;;;;;;5023510;27;59241;-75
2024/01/18 01:43:38;;;;;;;;;;;;;;;;;;5023676;28;60246;-75
2024/01/18 01:46:03;;;;;;;;;;;;;;;;;;5021952;27;60687;-75
2024/01/18 01:48:28;;;;;;;;;;;;;;;;;;5024585;28;59311;-75
2024/01/18 01:50:53;;;;;;;;;;;;;;;;;;5021873;28;59526;-75
2024/01/18 01:53:18;;;;;;;;;;;;;;;;;;5024905;28;60058;-74
2024/01/18 01:55:44;;;;;;;;;;;;;;;;;;5023273;28;60178;-74
2024/01/18 01:58:09;;;;;;;;;;;;;;;;;;5023405;28;59567;-74
2024/01/18 02:00:34;;;;;;;;;;;;;;;;;;5022763;28;59430;-74
2024/01/18 02:02:59;;;;;;;;;;;;;;;;;;5024877;28;59879;-75
2024/01/18 02:05:26;;;;;;;;;;;;;;;;;;5021796;28;59917;-75
2024/01/18 02:07:51;;;;;;;;;;;;;;;;;;5022546;28;59250;-75
2024/01/18 02:10:16;;;;;;;;;;;;;;;;;;5020339;28;59553;-75
2024/01/18 02:12:41;;;;;;;;;;;;;;;;;;5024279;28;59298;-75
2024/01/18 02:15:06;;;;;;;;;;;;;;;;;;5021606;28;60149;-75
2024/01/18 02:17:32;;;;;;;;;;;;;;;;;;5022678;27;60281;-75
2024/01/18 02:19:57;;;;;;;;;;;;;;;;;;5022920;28;59205;-75
2024/01/18 02:22:22;;;;;;;;;;;;;;;;;;5022065;28;60136;-75
2024/01/18 02:24:47;;;;;;;;;;;;;;;;;;5021353;28;59706;-75
2024/01/18 02:27:12;;;;;;;;;;;;;;;;;;5022325;28;59827;-75
2024/01/18 02:29:37;;;;;;;;;;;;;;;;;;5021502;28;60192;-75
2024/01/18 02:32:03;;;;;;;;;;;;;;;;;;5022582;28;58693;-75
2024/01/18 02:34:28;;;;;;;;;;;;;;;;;;5023320;28;60323;-75
2024/01/18 02:36:53;;;;;;;;;;;;;;;;;;5022858;27;59470;-75
2024/01/18 02:39:18;;;;;;;;;;;;;;;;;;5023805;28;59130;-75
2024/01/18 02:41:43;;;;;;;;;;;;;;;;;;5024650;27;61005;-76
2024/01/18 02:44:08;;;;;;;;;;;;;;;;;;5020642;28;59577;-75
2024/01/18 02:46:33;;;;;;;;;;;;;;;;;;5024500;28;59484;-75
2024/01/18 02:48:58;;;;;;;;;;;;;;;;;;5020126;28;62106;-75
2024/01/18 02:51:23;;;;;;;;;;;;;;;;;;5021394;28;59228;-75
2024/01/18 02:53:48;;;;;;;;;;;;;;;;;;5023333;28;60341;-76
2024/01/18 02:56:13;;;;;;;;;;;;;;;;;;5021481;28;59688;-75
2024/01/18 02:58:39;;;;;;;;;;;;;;;;;;5022867;28;59570;-75
2024/01/18 03:01:04;;;;;;;;;;;;;;;;;;5022259;28;60785;-74
2024/01/18 03:03:29;;;;;;;;;;;;;;;;;;5021775;28;59649;-74
2024/01/18 03:05:54;;;;;;;;;;;;;;;;;;5022254;28;59414;-74
2024/01/18 03:08:19;;;;;;;;;;;;;;;;;;5021815;27;61196;-74
2024/01/18 03:10:44;;;;;;;;;;;;;;;;;;5023036;28;59575;-74
2024/01/18 03:13:09;;;;;;;;;;;;;;;;;;5024949;28;59583;-73
2024/01/18 03:15:34;;;;;;;;;;;;;;;;;;5021883;27;59761;-73
2024/01/18 03:17:59;;;;;;;;;;;;;;;;;;5022924;28;60634;-73
2024/01/18 03:20:24;;;;;;;;;;;;;;;;;;5020302;28;59237;-73
2024/01/18 03:22:49;;;;;;;;;;;;;;;;;;5023424;28;60074;-73
2024/01/18 03:25:14;;;;;;;;;;;;;;;;;;5021041;28;59554;-73
2024/01/18 03:27:40;;;;;;;;;;;;;;;;;;5021373;28;61216;-73
2024/01/18 03:30:05;;;;;;;;;;;;;;;;;;5020569;28;60285;-74
2024/01/18 03:32:30;;;;;;;;;;;;;;;;;;5023167;28;59226;-73
2024/01/18 03:34:55;;;;;;;;;;;;;;;;;;5022292;28;60531;-73
2024/01/18 03:37:20;;;;;;;;;;;;;;;;;;5023254;28;59632;-73
2024/01/18 03:39:45;;;;;;;;;;;;;;;;;;5021323;28;60188;-73
2024/01/18 03:42:10;;;;;;;;;;;;;;;;;;5021703;28;59607;-73
2024/01/18 03:44:35;;;;;;;;;;;;;;;;;;5019784;28;59609;-73
2024/01/18 03:47:00;;;;;;;;;;;;;;;;;;5022996;28;61451;-74
2024/01/18 03:49:25;;;;;;;;;;;;;;;;;;5022432;28;59794;-73
2024/01/18 03:51:51;;;;;;;;;;;;;;;;;;5023222;28;59483;-73
2024/01/18 03:54:16;;;;;;;;;;;;;;;;;;5020598;28;60956;-73
2024/01/18 03:56:41;;;;;;;;;;;;;;;;;;5020462;27;59365;-73
2024/01/18 03:59:06;;;;;;;;;;;;;;;;;;5020639;27;61474;-73
2024/01/18 04:01:31;;;;;;;;;;;;;;;;;;5022380;28;59242;-73
2024/01/18 04:03:56;;;;;;;;;;;;;;;;;;5020184;28;60229;-73
2024/01/18 04:06:21;;;;;;;;;;;;;;;;;;5020837;28;59791;-73
2024/01/18 04:08:47;;;;;;;;;;;;;;;;;;5022214;28;59558;-73
2024/01/18 04:11:12;;;;;;;;;;;;;;;;;;5017347;28;59595;-75
2024/01/18 04:13:37;;;;;;;;;;;;;;;;;;5015775;28;61405;-75
2024/01/18 04:16:02;;;;;;;;;;;;;;;;;;5014873;28;60130;-75
2024/01/18 04:18:27;;;;;;;;;;;;;;;;;;5017313;28;59859;-75
2024/01/18 04:20:52;;;;;;;;;;;;;;;;;;5015088;28;59716;-75
2024/01/18 04:23:18;;;;;;;;;;;;;;;;;;5015340;28;59374;-75
2024/01/18 04:26:09;;;;;;;;;;;;;;;;;;5014832;28;78451;-75
2024/01/18 04:28:34;;;;;;;;;;;;;;;;;;5014405;28;60739;-75
2024/01/18 04:30:59;;;;;;;;;;;;;;;;;;5016601;28;60328;-75
2024/01/18 04:33:24;;;;;;;;;;;;;;;;;;5015181;28;61336;-75
2024/01/18 04:35:49;;;;;;;;;;;;;;;;;;5014872;28;59837;-75
2024/01/18 04:38:14;;;;;;;;;;;;;;;;;;5016001;28;59564;-75
2024/01/18 04:40:40;;;;;;;;;;;;;;;;;;5015695;28;60812;-75
2024/01/18 04:43:05;;;;;;;;;;;;;;;;;;5013457;28;59762;-75
2024/01/18 04:45:30;;;;;;;;;;;;;;;;;;5014554;28;59417;-75
2024/01/18 04:47:56;;;;;;;;;;;;;;;;;;5012955;28;59715;-75
2024/01/18 04:50:24;;;;;;;;;;;;;;;;;;5013338;28;59919;-75
2024/01/18 04:52:50;;;;;;;;;;;;;;;;;;5012190;28;61397;-75
2024/01/18 04:55:15;;;;;;;;;;;;;;;;;;5014640;28;59487;-75
2024/01/18 04:57:40;;;;;;;;;;;;;;;;;;5017617;28;59629;-75
2024/01/18 05:00:09;;;;;;;;;;;;;;;;;;5018172;28;59932;-75
2024/01/18 05:02:35;;;;;;;;;;;;;;;;;;5016762;28;59617;-75
2024/01/18 05:05:00;;;;;;;;;;;;;;;;;;5018383;28;61256;-75
2024/01/18 05:07:25;;;;;;;;;;;;;;;;;;5015895;28;59688;-75
2024/01/18 05:09:50;;;;;;;;;;;;;;;;;;5016562;28;59650;-75
2024/01/18 05:12:15;;;;;;;;;;;;;;;;;;5015090;28;59785;-75
2024/01/18 05:14:40;;;;;;;;;;;;;;;;;;5015720;28;59600;-75
2024/01/18 05:17:10;;;;;;;;;;;;;;;;;;5016496;28;59629;-75
2024/01/18 05:19:35;;;;;;;;;;;;;;;;;;5016896;28;60537;-75
2024/01/18 05:22:00;;;;;;;;;;;;;;;;;;5016278;28;59491;-73
2024/01/18 05:24:25;;;;;;;;;;;;;;;;;;5014903;28;60811;-74
2024/01/18 05:26:50;;;;;;;;;;;;;;;;;;5016545;28;59813;-73
2024/01/18 05:29:15;;;;;;;;;;;;;;;;;;5017694;28;60214;-74
2024/01/18 05:31:41;;;;;;;;;;;;;;;;;;5018933;28;60051;-74
2024/01/18 05:34:06;;;;;;;;;;;;;;;;;;5014974;28;59837;-74
2024/01/18 05:36:31;;;;;;;;;;;;;;;;;;5019220;28;59428;-74
2024/01/18 05:38:56;;;;;;;;;;;;;;;;;;5017984;28;59405;-74
2024/01/18 05:41:21;;;;;;;;;;;;;;;;;;5016076;28;59474;-74
2024/01/18 05:43:46;;;;;;;;;;;;;;;;;;5017386;28;59733;-74
2024/01/18 05:46:11;;;;;;;;;;;;;;;;;;5014529;28;59682;-74
2024/01/18 05:48:36;;;;;;;;;;;;;;;;;;5016496;28;59327;-74
2024/01/18 05:51:01;;;;;;;;;;;;;;;;;;5017085;28;59782;-73
2024/01/18 05:53:27;;;;;;;;;;;;;;;;;;5015573;28;59531;-73
2024/01/18 05:55:52;;;;;;;;;;;;;;;;;;5015498;28;59509;-73
2024/01/18 05:58:17;;;;;;;;;;;;;;;;;;5017723;28;60855;-73
2024/01/18 06:00:42;;;;;;;;;;;;;;;;;;5016533;28;59475;-78
2024/01/18 06:03:08;;;;;;;;;;;;;;;;;;5017579;28;59417;-78
2024/01/18 06:05:33;;;;;;;;;;;;;;;;;;5016561;28;60327;-78
2024/01/18 06:07:58;;;;;;;;;;;;;;;;;;5017712;28;59455;-78
2024/01/18 06:10:23;;;;;;;;;;;;;;;;;;5015355;28;59770;-78
2024/01/18 06:12:48;;;;;;;;;;;;;;;;;;5015031;28;59423;-74
2024/01/18 06:15:13;;;;;;;;;;;;;;;;;;5008811;28;59511;-74
2024/01/18 06:17:38;;;;;;;;;;;;;;;;;;5012505;28;60226;-78
2024/01/18 06:20:03;;;;;;;;;;;;;;;;;;5006791;28;60081;-78
2024/01/18 06:22:28;;;;;;;;;;;;;;;;;;5010717;27;59316;-78
2024/01/18 06:24:54;;;;;;;;;;;;;;;;;;5018555;28;60225;-77
2024/01/18 06:27:19;;;;;;;;;;;;;;;;;;5014203;28;59290;-77
2024/01/18 06:29:44;;;;;;;;;;;;;;;;;;5023249;28;60023;-75
2024/01/18 06:32:09;;;;;;;;;;;;;;;;;;5022591;28;60097;-74
2024/01/18 06:34:34;;;;;;;;;;;;;;;;;;5022863;28;59211;-74
2024/01/18 06:37:00;;;;;;;;;;;;;;;;;;5025032;28;60628;-76
2024/01/18 06:39:25;;;;;;;;;;;;;;;;;;5011847;28;59515;-70
2024/01/18 06:41:50;;;;;;;;;;;;;;;;;;5021705;28;59530;-69
2024/01/18 06:44:15;;;;;;;;;;;;;;;;;;5018454;28;59457;-68
2024/01/18 06:46:40;;;;;;;;;;;;;;;;;;5017577;27;60471;-67
2024/01/18 06:49:06;;;;;;;;;;;;;;;;;;5016805;28;61034;-68
2024/01/18 06:51:31;;;;;;;;;;;;;;;;;;5020355;28;59926;-68
2024/01/18 06:53:56;;;;;;;;;;;;;;;;;;5016934;28;59532;-68
2024/01/18 06:56:21;;;;;;;;;;;;;;;;;;5019308;28;61911;-67
2024/01/18 06:58:46;;;;;;;;;;;;;;;;;;5018121;28;60371;-68
2024/01/18 07:01:14;;;;;;;;;;;;;;;;;;5014671;28;59301;-68
2024/01/18 07:03:41;;;;;;;;;;;;;;;;;;5016803;28;59983;-68
2024/01/18 07:06:06;;;;;;;;;;;;;;;;;;5018515;28;59445;-67
2024/01/18 07:08:31;;;;;;;;;;;;;;;;;;5015306;28;59525;-68
2024/01/18 07:10:56;;;;;;;;;;;;;;;;;;5013703;28;60284;-68
2024/01/18 07:13:21;;;;;;;;;;;;;;;;;;5016447;28;59571;-67
2024/01/18 07:15:46;;;;;;;;;;;;;;;;;;5015947;27;61973;-68
2024/01/18 07:18:12;;;;;;;;;;;;;;;;;;5011875;28;59133;-68
2024/01/18 07:20:37;;;;;;;;;;;;;;;;;;5015472;28;59925;-68
2024/01/18 07:23:02;;;;;;;;;;;;;;;;;;5015916;28;61053;-67
2024/01/18 07:25:28;;;;;;;;;;;;;;;;;;5013290;28;59809;-67
2024/01/18 07:27:53;;;;;;;;;;;;;;;;;;5018273;28;59231;-68
2024/01/18 07:30:18;;;;;;;;;;;;;;;;;;5014755;28;60102;-67
2024/01/18 07:32:44;;;;;;;;;;;;;;;;;;5018112;27;59422;-68
2024/01/18 07:35:09;;;;;;;;;;;;;;;;;;5015900;28;61385;-67
2024/01/18 07:37:34;;;;;;;;;;;;;;;;;;5015385;28;78693;-67
2024/01/18 07:40:00;;;;;;;;;;;;;;;;;;5017685;27;64001;-68
2024/01/18 07:42:25;;;;;;;;;;;;;;;;;;5019343;27;60362;-67
2024/01/18 07:44:50;;;;;;;;;;;;;;;;;;5011822;28;59576;-67
2024/01/18 07:47:16;;;;;;;;;;;;;;;;;;5020019;28;59457;-67
2024/01/18 07:49:45;;;;;;;;;;;;;;;;;;5014263;27;59301;-67
2024/01/18 07:52:10;;;;;;;;;;;;;;;;;;5014968;28;59837;-67
2024/01/18 07:54:36;;;;;;;;;;;;;;;;;;5013247;28;61947;-67
2024/01/18 07:57:01;;;;;;;;;;;;;;;;;;5018470;28;59219;-67
2024/01/18 07:59:26;;;;;;;;;;;;;;;;;;5017275;28;60499;-67
2024/01/18 08:01:52;;;;;;;;;;;;;;;;;;5017644;27;60169;-67
2024/01/18 08:04:17;;;;;;;;;;;;;;;;;;5014889;28;59276;-67
2024/01/18 08:06:42;;;;;;;;;;;;;;;;;;5017744;28;59674;-67
2024/01/18 08:09:08;;;;;;;;;;;;;;;;;;5017404;28;60330;-67
2024/01/18 08:11:33;;;;;;;;;;;;;;;;;;5017599;28;59646;-67
2024/01/18 08:13:58;;;;;;;;;;;;;;;;;;5011863;28;59560;-67
2024/01/18 08:16:23;;;;;;;;;;;;;;;;;;5012857;28;59414;-67
2024/01/18 08:18:48;;;;;;;;;;;;;;;;;;5019599;27;59924;-67
2024/01/18 08:21:13;;;;;;;;;;;;;;;;;;5013000;28;62222;-67
2024/01/18 08:23:38;;;;;;;;;;;;;;;;;;5014893;28;59276;-67
2024/01/18 08:26:03;;;;;;;;;;;;;;;;;;5015522;28;59436;-67
2024/01/18 08:28:28;;;;;;;;;;;;;;;;;;5014457;28;60208;-67
2024/01/18 08:30:53;;;;;;;;;;;;;;;;;;5014172;28;60530;-67
2024/01/18 08:33:20;;;;;;;;;;;;;;;;;;5012181;28;59591;-67
2024/01/18 08:35:45;;;;;;;;;;;;;;;;;;5017662;28;60373;-67
2024/01/18 08:38:10;;;;;;;;;;;;;;;;;;5016399;28;59480;-67
2024/01/18 08:40:35;;;;;;;;;;;;;;;;;;5019351;28;60536;-67
2024/01/18 08:43:00;;;;;;;;;;;;;;;;;;5015525;28;59748;-67
2024/01/18 08:45:25;;;;;;;;;;;;;;;;;;5018617;28;59448;-67
2024/01/18 08:47:50;;;;;;;;;;;;;;;;;;5017499;28;60280;-67
2024/01/18 08:50:15;;;;;;;;;;;;;;;;;;5015520;28;59962;-67
2024/01/18 08:52:41;;;;;;;;;;;;;;;;;;5017749;28;60316;-68
2024/01/18 08:55:06;;;;;;;;;;;;;;;;;;5015124;28;59373;-68
2024/01/18 08:57:31;;;;;;;;;;;;;;;;;;5017521;28;59191;-68
2024/01/18 08:59:56;;;;;;;;;;;;;;;;;;5013892;28;61480;-68
2024/01/18 09:02:21;;;;;;;;;;;;;;;;;;5009827;28;60257;-67
2024/01/18 09:04:46;;;;;;;;;;;;;;;;;;5012580;28;59670;-67
2024/01/18 09:07:11;;;;;;;;;;;;;;;;;;5013016;28;61349;-67
2024/01/18 09:09:36;;;;;;;;;;;;;;;;;;5013264;28;59239;-67
2024/01/18 09:12:01;;;;;;;;;;;;;;;;;;5019754;28;59570;-67
2024/01/18 09:14:27;;;;;;;;;;;;;;;;;;5014262;28;60936;-67
2024/01/18 09:16:52;;;;;;;;;;;;;;;;;;5012753;28;59172;-67
2024/01/18 09:19:17;;;;;;;;;;;;;;;;;;5014324;28;59622;-67
2024/01/18 09:21:42;;;;;;;;;;;;;;;;;;5012654;28;59206;-67
2024/01/18 09:24:07;;;;;;;;;;;;;;;;;;5017203;28;59498;-67
2024/01/18 09:26:32;;;;;;;;;;;;;;;;;;5014287;28;61345;-67
2024/01/18 09:28:58;;;;;;;;;;;;;;;;;;5015202;28;59277;-67
2024/01/18 09:31:23;;;;;;;;;;;;;;;;;;5015933;28;59344;-67
2024/01/18 09:33:48;;;;;;;;;;;;;;;;;;5013116;27;61610;-67
2024/01/18 09:36:13;;;;;;;;;;;;;;;;;;5016017;28;59493;-67
2024/01/18 09:38:38;;;;;;;;;;;;;;;;;;5019647;28;59451;-67
2024/01/18 09:41:06;;;;;;;;;;;;;;;;;;5016047;27;59380;-67
2024/01/18 09:43:31;;;;;;;;;;;;;;;;;;5023238;28;59223;-67
2024/01/18 09:45:56;;;;;;;;;;;;;;;;;;5021472;27;60467;-67
2024/01/18 09:48:22;;;;;;;;;;;;;;;;;;5021951;27;59620;-67
2024/01/18 09:50:47;;;;;;;;;;;;;;;;;;5019342;28;59646;-67
2024/01/18 09:53:13;;;;;;;;;;;;;;;;;;5019197;28;59804;-67
2024/01/18 09:55:38;;;;;;;;;;;;;;;;;;5019077;28;59334;-67
2024/01/18 09:58:03;;;;;;;;;;;;;;;;;;5017471;28;59127;-67
2024/01/18 10:00:28;;;;;;;;;;;;;;;;;;5019983;27;60983;-67
2024/01/18 10:02:53;;;;;;;;;;;;;;;;;;5022075;28;59555;-68
2024/01/18 10:05:18;;;;;;;;;;;;;;;;;;5017011;28;60428;-68
2024/01/18 10:07:43;;;;;;;;;;;;;;;;;;5019143;28;59516;-68
2024/01/18 10:10:12;;;;;;;;;;;;;;;;;;5017222;27;59539;-68
2024/01/18 10:12:37;;;;;;;;;;;;;;;;;;5017865;28;59890;-68
2024/01/18 10:15:02;;;;;;;;;;;;;;;;;;5019252;28;59929;-68
2024/01/18 10:17:28;;;;;;;;;;;;;;;;;;5019843;28;59268;-68
2024/01/18 10:19:53;;;;;;;;;;;;;;;;;;5014995;28;60468;-68
2024/01/18 10:22:18;;;;;;;;;;;;;;;;;;5017254;27;59297;-68
2024/01/18 10:24:43;;;;;;;;;;;;;;;;;;5016713;28;59738;-68
2024/01/18 10:27:08;;;;;;;;;;;;;;;;;;5016874;27;59511;-69
2024/01/18 10:29:36;;;;;;;;;;;;;;;;;;5019257;28;59549;-68
2024/01/18 10:32:03;;;;;;;;;;;;;;;;;;5020669;28;60911;-68
2024/01/18 10:34:28;;;;;;;;;;;;;;;;;;5014349;27;59716;-68
2024/01/18 10:36:53;;;;;;;;;;;;;;;;;;5017715;28;59727;-68
2024/01/18 10:39:18;;;;;;;;;;;;;;;;;;5018710;27;60482;-68
2024/01/18 10:41:44;;;;;;;;;;;;;;;;;;5016649;27;59758;-69
2024/01/18 10:44:09;;;;;;;;;;;;;;;;;;5019714;28;59674;-68
2024/01/18 10:46:34;;;;;;;;;;;;;;;;;;5016252;27;59239;-68
2024/01/18 10:48:59;;;;;;;;;;;;;;;;;;5019913;27;59789;-69
2024/01/18 10:51:24;;;;;;;;;;;;;;;;;;5018900;28;60199;-68
2024/01/18 10:53:49;;;;;;;;;;;;;;;;;;5014004;28;60176;-68
2024/01/18 10:56:14;;;;;;;;;;;;;;;;;;5020986;28;59709;-68
2024/01/18 10:58:40;;;;;;;;;;;;;;;;;;5015464;28;60933;-68
2024/01/18 11:01:05;;;;;;;;;;;;;;;;;;5015687;27;59876;-67
2024/01/18 11:03:30;;;;;;;;;;;;;;;;;;5014299;27;59327;-68
2024/01/18 11:05:55;;;;;;;;;;;;;;;;;;5021419;28;60304;-69
2024/01/18 11:08:21;;;;;;;;;;;;;;;;;;5017743;28;59437;-68
2024/01/18 11:10:49;;;;;;;;;;;;;;;;;;5014898;27;60473;-68
2024/01/18 11:13:15;;;;;;;;;;;;;;;;;;5013995;28;59257;-68
2024/01/18 11:15:41;;;;;;;;;;;;;;;;;;5020991;28;59429;-68
2024/01/18 11:18:06;;;;;;;;;;;;;;;;;;5015247;27;59411;-68
2024/01/18 11:20:31;;;;;;;;;;;;;;;;;;5016543;28;59633;-68
2024/01/18 11:22:58;;;;;;;;;;;;;;;;;;5016366;28;59285;-68
2024/01/18 11:25:23;;;;;;;;;;;;;;;;;;5018426;28;59766;-68
2024/01/18 11:27:48;;;;;;;;;;;;;;;;;;5013303;28;59223;-68
2024/01/18 11:30:13;;;;;;;;;;;;;;;;;;5017612;28;61396;-69
2024/01/18 11:32:38;;;;;;;;;;;;;;;;;;5018183;28;59776;-68
2024/01/18 11:35:04;;;;;;;;;;;;;;;;;;5015404;28;59255;-68
2024/01/18 11:37:29;;;;;;;;;;;;;;;;;;5017934;28;60227;-69
2024/01/18 11:39:54;;;;;;;;;;;;;;;;;;5012313;27;59909;-67
2024/01/18 11:42:19;;;;;;;;;;;;;;;;;;5016525;28;59530;-69
2024/01/18 11:44:44;;;;;;;;;;;;;;;;;;5016985;28;60877;-67
2024/01/18 11:47:09;;;;;;;;;;;;;;;;;;5014885;28;59260;-67
2024/01/18 11:49:35;;;;;;;;;;;;;;;;;;5016061;28;59729;-68
2024/01/18 11:52:00;;;;;;;;;;;;;;;;;;5013954;28;59435;-68
2024/01/18 11:54:25;;;;;;;;;;;;;;;;;;5012652;28;59630;-68
2024/01/18 11:56:50;;;;;;;;;;;;;;;;;;5015900;28;60756;-68
2024/01/18 11:59:15;;;;;;;;;;;;;;;;;;5018096;28;59453;-67
2024/01/18 12:01:40;;;;;;;;;;;;;;;;;;5017150;28;59464;-68
2024/01/18 12:04:07;;;;;;;;;;;;;;;;;;5015363;28;60168;-68
2024/01/18 12:06:32;;;;;;;;;;;;;;;;;;5012761;28;59980;-68
2024/01/18 12:08:58;;;;;;;;;;;;;;;;;;5018422;27;59426;-68
2024/01/18 12:11:23;;;;;;;;;;;;;;;;;;5014296;28;60086;-68
2024/01/18 12:13:49;;;;;;;;;;;;;;;;;;5019013;27;59194;-69
2024/01/18 12:16:14;;;;;;;;;;;;;;;;;;5017451;28;60147;-68
2024/01/18 12:18:39;;;;;;;;;;;;;;;;;;5020076;28;59677;-68
2024/01/18 12:21:05;;;;;;;;;;;;;;;;;;5016676;27;59452;-67
2024/01/18 12:23:30;;;;;;;;;;;;;;;;;;5016476;28;60212;-67
2024/01/18 12:25:55;;;;;;;;;;;;;;;;;;5016316;28;61108;-67
2024/01/18 12:28:20;;;;;;;;;;;;;;;;;;5013296;27;59198;-67
2024/01/18 12:30:45;;;;;;;;;;;;;;;;;;5014305;28;59542;-67
2024/01/18 12:33:10;;;;;;;;;;;;;;;;;;5017219;28;59739;-67
2024/01/18 12:35:36;;;;;;;;;;;;;;;;;;5019939;28;59503;-67
2024/01/18 12:38:01;;;;;;;;;;;;;;;;;;5014204;28;59602;-67
2024/01/18 12:40:26;;;;;;;;;;;;;;;;;;5018378;28;59044;-67
2024/01/18 12:42:52;;;;;;;;;;;;;;;;;;5015999;27;60180;-67
2024/01/18 12:45:17;;;;;;;;;;;;;;;;;;5014142;27;59639;-67
2024/01/18 12:47:42;;;;;;;;;;;;;;;;;;5014998;28;59509;-67
2024/01/18 12:50:10;;;;;;;;;;;;;;;;;;5016931;28;60269;-68
2024/01/18 12:52:35;;;;;;;;;;;;;;;;;;5015809;27;59354;-67
2024/01/18 12:55:01;;;;;;;;;;;;;;;;;;5016419;27;60296;-67
2024/01/18 12:57:27;;;;;;;;;;;;;;;;;;5012623;28;59041;-67
2024/01/18 12:59:52;;;;;;;;;;;;;;;;;;5018395;28;59084;-67
2024/01/18 13:02:20;;;;;;;;;;;;;;;;;;5014282;28;60333;-67
2024/01/18 13:04:45;;;;;;;;;;;;;;;;;;5016513;28;62645;-67
2024/01/18 13:07:12;;;;;;;;;;;;;;;;;;5017066;28;59537;-67
2024/01/18 13:09:37;;;;;;;;;;;;;;;;;;5020130;28;60939;-67
2024/01/18 13:12:02;;;;;;;;;;;;;;;;;;5014053;28;59036;-67
2024/01/18 13:14:28;;;;;;;;;;;;;;;;;;5018633;28;60119;-67
2024/01/18 13:16:53;;;;;;;;;;;;;;;;;;5018204;28;59530;-67
2024/01/18 13:19:18;;;;;;;;;;;;;;;;;;5018419;28;59155;-67
2024/01/18 13:21:44;;;;;;;;;;;;;;;;;;5021638;28;60546;-67
2024/01/18 13:24:09;;;;;;;;;;;;;;;;;;5021551;28;59433;-68
2024/01/18 13:26:34;;;;;;;;;;;;;;;;;;5022242;28;59349;-71
2024/01/18 13:28:59;;;;;;;;;;;;;;;;;;5017992;28;61612;-71
2024/01/18 13:31:24;;;;;;;;;;;;;;;;;;5013913;28;60622;-71
2024/01/18 13:33:49;;;;;;;;;;;;;;;;;;5036398;27;59765;-71
2024/01/18 13:36:14;;;;;;;;;;;;;;;;;;5016398;28;59573;-71
2024/01/18 13:38:39;;;;;;;;;;;;;;;;;;5021202;28;59536;-71
2024/01/18 13:41:05;;;;;;;;;;;;;;;;;;5017620;28;61195;-71
2024/01/18 13:43:30;;;;;;;;;;;;;;;;;;5019551;28;64495;-71
2024/01/18 13:45:58;;;;;;;;;;;;;;;;;;5017304;28;59509;-71
2024/01/18 13:48:23;;;;;;;;;;;;;;;;;;5019163;28;60116;-71
2024/01/18 13:50:49;;;;;;;;;;;;;;;;;;5016852;27;59854;-71
2024/01/18 13:53:15;;;;;;;;;;;;;;;;;;5021141;28;59366;-70
2024/01/18 13:55:41;;;;;;;;;;;;;;;;;;5017641;28;60250;-71
2024/01/18 13:58:07;;;;;;;;;;;;;;;;;;5015434;28;59292;-71
2024/01/18 14:00:33;;;;;;;;;;;;;;;;;;5022643;28;59288;-71
2024/01/18 14:02:58;;;;;;;;;;;;;;;;;;5018416;28;59796;-71
2024/01/18 14:05:23;;;;;;;;;;;;;;;;;;5021460;28;59188;-71
2024/01/18 14:07:48;;;;;;;;;;;;;;;;;;5020194;28;60900;-71
2024/01/18 14:10:14;;;;;;;;;;;;;;;;;;5016784;28;59918;-71
2024/01/18 14:12:39;;;;;;;;;;;;;;;;;;5017242;28;59804;-71
2024/01/18 14:15:04;;;;;;;;;;;;;;;;;;5015142;27;60249;-71
2024/01/18 14:17:29;;;;;;;;;;;;;;;;;;5022067;28;59762;-71
2024/01/18 14:19:54;;;;;;;;;;;;;;;;;;5016669;28;59602;-71
2024/01/18 14:22:19;;;;;;;;;;;;;;;;;;5017713;28;59470;-71
2024/01/18 14:24:44;;;;;;;;;;;;;;;;;;5015505;27;59660;-71
2024/01/18 14:27:09;;;;;;;;;;;;;;;;;;5019407;28;60180;-71
2024/01/18 14:29:34;;;;;;;;;;;;;;;;;;5017919;28;59658;-70
2024/01/18 14:31:59;;;;;;;;;;;;;;;;;;5016957;28;60174;-71
2024/01/18 14:34:26;;;;;;;;;;;;;;;;;;5025910;28;59786;-71
2024/01/18 14:36:51;;;;;;;;;;;;;;;;;;5021706;28;60018;-71
2024/01/18 14:39:16;;;;;;;;;;;;;;;;;;5017021;27;59344;-71
2024/01/18 14:41:41;;;;;;;;;;;;;;;;;;5016935;28;59864;-71
2024/01/18 14:44:06;;;;;;;;;;;;;;;;;;5017263;28;59509;-71
2024/01/18 14:46:32;;;;;;;;;;;;;;;;;;5017523;27;60190;-71
2024/01/18 14:48:57;;;;;;;;;;;;;;;;;;5020698;28;59432;-71
2024/01/18 14:51:22;;;;;;;;;;;;;;;;;;5017323;28;58772;-71
2024/01/18 14:53:47;;;;;;;;;;;;;;;;;;5019246;28;59791;-71
2024/01/18 14:56:12;;;;;;;;;;;;;;;;;;5015879;28;59560;-71
2024/01/18 14:58:37;;;;;;;;;;;;;;;;;;5016474;27;59215;-71
2024/01/18 15:01:03;;;;;;;;;;;;;;;;;;5016013;28;61011;-71
2024/01/18 15:03:28;;;;;;;;;;;;;;;;;;5020503;28;59602;-71
2024/01/18 15:05:53;;;;;;;;;;;;;;;;;;5016231;27;59855;-71
2024/01/18 15:08:18;;;;;;;;;;;;;;;;;;5020364;28;59856;-71
2024/01/18 15:10:43;;;;;;;;;;;;;;;;;;5017027;28;59579;-71
2024/01/18 15:13:09;;;;;;;;;;;;;;;;;;5021069;27;59413;-70
2024/01/18 15:15:34;;;;;;;;;;;;;;;;;;5018821;27;59861;-70
2024/01/18 15:17:59;;;;;;;;;;;;;;;;;;5019524;28;59411;-71
2024/01/18 15:20:25;;;;;;;;;;;;;;;;;;5018654;28;60577;-71
2024/01/18 15:22:50;;;;;;;;;;;;;;;;;;5018740;28;59568;-71
2024/01/18 15:25:15;;;;;;;;;;;;;;;;;;5014344;27;62003;-71
2024/01/18 15:27:40;;;;;;;;;;;;;;;;;;5015128;28;59544;-71
2024/01/18 15:30:05;;;;;;;;;;;;;;;;;;5016846;28;59499;-71
2024/01/18 15:32:30;;;;;;;;;;;;;;;;;;5017720;28;61149;-71
2024/01/18 15:34:55;;;;;;;;;;;;;;;;;;5011871;28;59622;-71
2024/01/18 15:37:20;;;;;;;;;;;;;;;;;;5015621;27;59383;-71
2024/01/18 15:39:45;;;;;;;;;;;;;;;;;;5016968;28;62235;-71
2024/01/18 15:42:10;;;;;;;;;;;;;;;;;;5017470;28;59489;-71
2024/01/18 15:44:35;;;;;;;;;;;;;;;;;;5014244;28;60030;-71
2024/01/18 15:47:04;;;;;;;;;;;;;;;;;;5014551;28;59103;-70
2024/01/18 15:49:29;;;;;;;;;;;;;;;;;;5013496;28;60516;-71
2024/01/18 15:51:54;;;;;;;;;;;;;;;;;;5016017;27;60124;-71
2024/01/18 15:54:20;;;;;;;;;;;;;;;;;;5015153;28;60498;-81
2024/01/18 15:56:45;;;;;;;;;;;;;;;;;;5022515;28;59294;-79
2024/01/18 15:59:10;;;;;;;;;;;;;;;;;;5019595;28;59391;-79
2024/01/18 16:01:35;;;;;;;;;;;;;;;;;;5022575;28;60063;-83
2024/01/18 16:04:00;;;;;;;;;;;;;;;;;;5021099;27;59483;-83
2024/01/18 16:06:26;;;;;;;;;;;;;;;;;;5021955;28;59812;-83
2024/01/18 16:08:51;;;;;;;;;;;;;;;;;;5020504;28;59393;-79
2024/01/18 16:11:16;;;;;;;;;;;;;;;;;;5022384;28;60586;-75
2024/01/18 16:13:41;;;;;;;;;;;;;;;;;;5019671;28;59959;-78
2024/01/18 16:16:06;;;;;;;;;;;;;;;;;;5023243;27;59454;-80
2024/01/18 16:18:31;;;;;;;;;;;;;;;;;;5019271;28;60508;-79
2024/01/18 16:20:57;;;;;;;;;;;;;;;;;;5018057;28;59654;-79
2024/01/18 16:23:22;;;;;;;;;;;;;;;;;;5022730;28;59298;-79
2024/01/18 16:25:47;;;;;;;;;;;;;;;;;;5021116;28;60144;-79
2024/01/18 16:28:13;;;;;;;;;;;;;;;;;;5021793;28;59321;-79
2024/01/18 16:30:38;;;;;;;;;;;;;;;;;;5020478;28;61121;-78
2024/01/18 16:33:04;;;;;;;;;;;;;;;;;;5020688;28;58962;-79